Norton, Kansas
Current Conditions -  °F | °C
As of 6:32 AM on Thursday 23 Oct 2014 (Local Time) from KHLC Reporting Station
Moderate Fog Moderate Fog  
Wind Chill: 50°   Ceiling: 100
Heat Index: 50°   Visibility: 0.25mi
Dew Point: 50°   Wind: 0mph
Humidity: 100%   Direction: NA
Pressure: 30.09"   Gusts: NA
Location:  39.83°N, 99.89°W
Report Text: KHLC 231132Z AUTO 00000KT 1/4SM FG VV001 10/10 A3009 RMK AO2 T01000100
Loading
Personal Weather Stations






























Interactive Weather Map
Tropical Storm Tracking
New forecast layout! Learn more

10-Day Weather Forecast

Advertisements
Track Severe Weather on mobile